sensor_id;sensor_type;location;lat;lon;timestamp;pressure;altitude;pressure_sealevel;temperature;humidity
71126;BME280;58785;55.566;38.058;2023-05-02T00:00:12;100794.94;;;5.24;71.67
71126;BME280;58785;55.566;38.058;2023-05-02T00:02:38;100806.38;;;5.25;71.27
71126;BME280;58785;55.566;38.058;2023-05-02T00:05:05;100803.94;;;5.22;71.31
71126;BME280;58785;55.566;38.058;2023-05-02T00:07:31;100810.72;;;5.26;71.20
71126;BME280;58785;55.566;38.058;2023-05-02T00:09:58;100802.13;;;5.22;71.64
71126;BME280;58785;55.566;38.058;2023-05-02T00:12:24;100816.09;;;5.24;71.46
71126;BME280;58785;55.566;38.058;2023-05-02T00:14:50;100824.97;;;5.23;71.46
71126;BME280;58785;55.566;38.058;2023-05-02T00:17:19;100822.50;;;5.20;71.73
71126;BME280;58785;55.566;38.058;2023-05-02T00:19:45;100814.13;;;5.13;71.79
71126;BME280;58785;55.566;38.058;2023-05-02T00:22:11;100829.78;;;5.16;71.65
71126;BME280;58785;55.566;38.058;2023-05-02T00:24:37;100824.69;;;5.13;72.04
71126;BME280;58785;55.566;38.058;2023-05-02T00:27:02;100825.91;;;5.08;71.85
71126;BME280;58785;55.566;38.058;2023-05-02T00:29:29;100836.22;;;5.12;71.94
71126;BME280;58785;55.566;38.058;2023-05-02T00:31:55;100840.72;;;5.10;71.90
71126;BME280;58785;55.566;38.058;2023-05-02T00:34:21;100839.13;;;5.08;71.84
71126;BME280;58785;55.566;38.058;2023-05-02T00:36:48;100833.38;;;5.01;72.02
71126;BME280;58785;55.566;38.058;2023-05-02T00:39:13;100845.66;;;5.02;72.04
71126;BME280;58785;55.566;38.058;2023-05-02T00:41:39;100845.72;;;5.01;71.98
71126;BME280;58785;55.566;38.058;2023-05-02T00:44:04;100850.09;;;5.02;71.94
71126;BME280;58785;55.566;38.058;2023-05-02T00:46:30;100851.97;;;5.00;72.12
71126;BME280;58785;55.566;38.058;2023-05-02T00:48:56;100853.94;;;4.96;72.00
71126;BME280;58785;55.566;38.058;2023-05-02T00:51:21;100855.94;;;4.93;71.98
71126;BME280;58785;55.566;38.058;2023-05-02T00:53:48;100850.91;;;4.88;72.09
71126;BME280;58785;55.566;38.058;2023-05-02T00:56:13;100859.53;;;4.92;72.03
71126;BME280;58785;55.566;38.058;2023-05-02T00:58:40;100865.72;;;4.90;72.01
71126;BME280;58785;55.566;38.058;2023-05-02T01:12:17;100881.13;;;4.84;72.42
71126;BME280;58785;55.566;38.058;2023-05-02T01:14:50;100882.81;;;4.85;71.92
71126;BME280;58785;55.566;38.058;2023-05-02T01:17:18;100874.41;;;4.78;71.96
71126;BME280;58785;55.566;38.058;2023-05-02T01:19:57;100884.03;;;4.79;72.02
71126;BME280;58785;55.566;38.058;2023-05-02T01:22:25;100883.38;;;4.76;72.01
71126;BME280;58785;55.566;38.058;2023-05-02T01:28:04;100907.81;;;4.79;72.13
71126;BME280;58785;55.566;38.058;2023-05-02T01:30:37;100909.69;;;4.77;71.95
71126;BME280;58785;55.566;38.058;2023-05-02T01:33:04;100910.53;;;4.78;71.98
71126;BME280;58785;55.566;38.058;2023-05-02T01:35:32;100916.66;;;4.78;72.02
71126;BME280;58785;55.566;38.058;2023-05-02T01:38:01;100917.91;;;4.73;72.07
71126;BME280;58785;55.566;38.058;2023-05-02T01:40:28;100919.75;;;4.71;72.29
71126;BME280;58785;55.566;38.058;2023-05-02T01:42:55;100915.69;;;4.65;72.61
71126;BME280;58785;55.566;38.058;2023-05-02T01:45:22;100923.44;;;4.68;72.52
71126;BME280;58785;55.566;38.058;2023-05-02T01:47:49;100921.75;;;4.67;72.80
71126;BME280;58785;55.566;38.058;2023-05-02T01:50:19;100917.69;;;4.61;72.59
71126;BME280;58785;55.566;38.058;2023-05-02T01:52:50;100925.50;;;4.63;72.79
71126;BME280;58785;55.566;38.058;2023-05-02T01:55:17;100928.91;;;4.65;72.68
71126;BME280;58785;55.566;38.058;2023-05-02T01:57:46;100946.56;;;4.65;72.97
71126;BME280;58785;55.566;38.058;2023-05-02T02:00:13;100929.16;;;4.60;73.02
71126;BME280;58785;55.566;38.058;2023-05-02T02:02:41;100942.88;;;4.67;72.64
71126;BME280;58785;55.566;38.058;2023-05-02T02:05:09;100935.97;;;4.65;72.76
71126;BME280;58785;55.566;38.058;2023-05-02T02:07:35;100946.13;;;4.72;72.81
71126;BME280;58785;55.566;38.058;2023-05-02T02:10:01;100951.31;;;4.74;72.44
71126;BME280;58785;55.566;38.058;2023-05-02T02:12:37;100951.03;;;4.78;72.50
71126;BME280;58785;55.566;38.058;2023-05-02T02:15:20;100964.06;;;4.81;72.62
71126;BME280;58785;55.566;38.058;2023-05-02T02:17:59;100957.00;;;4.82;72.72
71126;BME280;58785;55.566;38.058;2023-05-02T02:20:27;100961.56;;;4.94;72.48
71126;BME280;58785;55.566;38.058;2023-05-02T02:22:55;100971.47;;;5.05;72.55
71126;BME280;58785;55.566;38.058;2023-05-02T02:25:22;100974.34;;;5.30;72.25
71126;BME280;58785;55.566;38.058;2023-05-02T02:27:49;100973.53;;;5.58;71.47
71126;BME280;58785;55.566;38.058;2023-05-02T02:30:15;100979.31;;;5.93;70.76
71126;BME280;58785;55.566;38.058;2023-05-02T02:32:41;100972.91;;;6.24;70.57
71126;BME280;58785;55.566;38.058;2023-05-02T02:35:07;100983.84;;;6.59;70.41
71126;BME280;58785;55.566;38.058;2023-05-02T02:38:01;100977.59;;;6.87;69.96
71126;BME280;58785;55.566;38.058;2023-05-02T02:40:42;100981.03;;;7.15;69.63
71126;BME280;58785;55.566;38.058;2023-05-02T02:43:16;100984.47;;;7.42;69.09
71126;BME280;58785;55.566;38.058;2023-05-02T02:46:01;100991.25;;;7.72;68.46
71126;BME280;58785;55.566;38.058;2023-05-02T02:48:39;100976.56;;;7.92;68.38
71126;BME280;58785;55.566;38.058;2023-05-02T02:56:16;101010.44;;;8.74;67.08
71126;BME280;58785;55.566;38.058;2023-05-02T03:01:24;101007.50;;;9.25;66.33
71126;BME280;58785;55.566;38.058;2023-05-02T03:03:52;101011.16;;;9.46;65.94
71126;BME280;58785;55.566;38.058;2023-05-02T03:06:19;101016.41;;;9.70;65.05
71126;BME280;58785;55.566;38.058;2023-05-02T03:08:45;101022.81;;;9.90;64.49
71126;BME280;58785;55.566;38.058;2023-05-02T03:11:11;101030.09;;;10.11;64.03
71126;BME280;58785;55.566;38.058;2023-05-02T03:13:37;101026.50;;;10.23;63.40
71126;BME280;58785;55.566;38.058;2023-05-02T03:18:57;101028.53;;;10.53;62.86
71126;BME280;58785;55.566;38.058;2023-05-02T03:21:22;101034.53;;;10.66;62.58
71126;BME280;58785;55.566;38.058;2023-05-02T03:23:48;101040.31;;;10.82;62.02
71126;BME280;58785;55.566;38.058;2023-05-02T03:26:15;101042.09;;;10.93;61.64
71126;BME280;58785;55.566;38.058;2023-05-02T03:28:41;101049.72;;;10.98;60.99
71126;BME280;58785;55.566;38.058;2023-05-02T03:31:07;101040.81;;;11.08;61.03
71126;BME280;58785;55.566;38.058;2023-05-02T03:33:32;101040.06;;;11.17;61.06
71126;BME280;58785;55.566;38.058;2023-05-02T03:35:58;101046.38;;;11.37;60.07
71126;BME280;58785;55.566;38.058;2023-05-02T03:38:24;101056.34;;;11.56;60.08
71126;BME280;58785;55.566;38.058;2023-05-02T03:40:49;101040.91;;;11.60;59.88
71126;BME280;58785;55.566;38.058;2023-05-02T03:43:15;101049.69;;;11.71;58.96
71126;BME280;58785;55.566;38.058;2023-05-02T03:45:40;101052.91;;;11.86;59.10
71126;BME280;58785;55.566;38.058;2023-05-02T03:48:06;101054.78;;;11.95;58.56
71126;BME280;58785;55.566;38.058;2023-05-02T03:50:32;101055.81;;;12.04;57.97
71126;BME280;58785;55.566;38.058;2023-05-02T03:52:57;101066.00;;;12.20;57.61
71126;BME280;58785;55.566;38.058;2023-05-02T03:55:23;101061.28;;;12.33;57.58
71126;BME280;58785;55.566;38.058;2023-05-02T03:57:49;101057.03;;;12.30;57.10
71126;BME280;58785;55.566;38.058;2023-05-02T04:00:14;101068.75;;;12.39;57.20
71126;BME280;58785;55.566;38.058;2023-05-02T04:02:40;101069.22;;;12.44;57.04
71126;BME280;58785;55.566;38.058;2023-05-02T04:05:06;101071.06;;;12.53;56.29
71126;BME280;58785;55.566;38.058;2023-05-02T04:07:34;101070.22;;;12.62;56.10
71126;BME280;58785;55.566;38.058;2023-05-02T04:09:59;101067.53;;;12.62;56.12
71126;BME280;58785;55.566;38.058;2023-05-02T04:12:25;101071.53;;;12.78;55.30
71126;BME280;58785;55.566;38.058;2023-05-02T04:14:50;101069.72;;;12.78;55.37
71126;BME280;58785;55.566;38.058;2023-05-02T04:17:16;101074.34;;;12.66;54.97
71126;BME280;58785;55.566;38.058;2023-05-02T04:19:42;101084.50;;;12.73;54.90
71126;BME280;58785;55.566;38.058;2023-05-02T04:22:08;101088.59;;;12.77;54.80
71126;BME280;58785;55.566;38.058;2023-05-02T04:24:33;101072.53;;;12.77;54.99
71126;BME280;58785;55.566;38.058;2023-05-02T04:26:59;101078.72;;;12.77;54.33
71126;BME280;58785;55.566;38.058;2023-05-02T04:29:25;101095.47;;;12.70;54.29
71126;BME280;58785;55.566;38.058;2023-05-02T04:31:51;101098.56;;;12.65;54.45
71126;BME280;58785;55.566;38.058;2023-05-02T04:34:18;101093.34;;;12.63;54.28
71126;BME280;58785;55.566;38.058;2023-05-02T04:36:44;101105.19;;;12.71;53.54
71126;BME280;58785;55.566;38.058;2023-05-02T04:39:10;101110.84;;;12.77;53.39
71126;BME280;58785;55.566;38.058;2023-05-02T04:41:36;101103.13;;;12.84;53.64
71126;BME280;58785;55.566;38.058;2023-05-02T04:44:02;101103.41;;;13.00;52.95
71126;BME280;58785;55.566;38.058;2023-05-02T04:46:28;101114.34;;;13.28;52.76
71126;BME280;58785;55.566;38.058;2023-05-02T04:48:53;101112.19;;;13.21;52.81
71126;BME280;58785;55.566;38.058;2023-05-02T04:51:19;101113.16;;;13.11;52.79
71126;BME280;58785;55.566;38.058;2023-05-02T04:53:45;101111.22;;;13.22;52.93
71126;BME280;58785;55.566;38.058;2023-05-02T04:56:11;101100.66;;;13.40;52.50
71126;BME280;58785;55.566;38.058;2023-05-02T04:58:37;101109.53;;;13.50;52.23
71126;BME280;58785;55.566;38.058;2023-05-02T05:01:03;101110.81;;;13.66;52.08
71126;BME280;58785;55.566;38.058;2023-05-02T05:03:28;101109.94;;;13.75;51.71
71126;BME280;58785;55.566;38.058;2023-05-02T05:05:55;101119.38;;;13.89;51.71
71126;BME280;58785;55.566;38.058;2023-05-02T05:08:21;101104.94;;;13.99;51.70
71126;BME280;58785;55.566;38.058;2023-05-02T05:10:47;101111.22;;;14.27;51.17
71126;BME280;58785;55.566;38.058;2023-05-02T05:13:13;101121.22;;;14.45;51.00
71126;BME280;58785;55.566;38.058;2023-05-02T05:15:39;101118.22;;;14.48;50.59
71126;BME280;58785;55.566;38.058;2023-05-02T05:18:05;101114.16;;;14.34;49.76
71126;BME280;58785;55.566;38.058;2023-05-02T05:20:31;101114.28;;;14.32;50.34
71126;BME280;58785;55.566;38.058;2023-05-02T05:22:58;101117.22;;;14.49;49.60
71126;BME280;58785;55.566;38.058;2023-05-02T05:25:25;101122.72;;;14.57;49.36
71126;BME280;58785;55.566;38.058;2023-05-02T05:27:52;101119.41;;;14.63;49.87
71126;BME280;58785;55.566;38.058;2023-05-02T05:30:19;101112.81;;;14.85;49.15
71126;BME280;58785;55.566;38.058;2023-05-02T05:32:45;101118.50;;;15.00;49.17
71126;BME280;58785;55.566;38.058;2023-05-02T05:35:10;101113.97;;;15.00;48.47
71126;BME280;58785;55.566;38.058;2023-05-02T05:37:36;101118.81;;;14.97;48.21
71126;BME280;58785;55.566;38.058;2023-05-02T05:40:07;101113.16;;;14.72;46.75
71126;BME280;58785;55.566;38.058;2023-05-02T05:42:33;101106.19;;;14.52;47.45
71126;BME280;58785;55.566;38.058;2023-05-02T05:44:58;101112.00;;;14.47;47.57
71126;BME280;58785;55.566;38.058;2023-05-02T05:47:24;101105.97;;;14.35;46.82
71126;BME280;58785;55.566;38.058;2023-05-02T05:49:54;101113.25;;;14.53;47.06
71126;BME280;58785;55.566;38.058;2023-05-02T05:52:20;101112.19;;;14.73;47.12
71126;BME280;58785;55.566;38.058;2023-05-02T05:54:46;101113.69;;;15.03;46.57
71126;BME280;58785;55.566;38.058;2023-05-02T05:57:11;101113.47;;;15.14;46.21
71126;BME280;58785;55.566;38.058;2023-05-02T05:59:37;101124.44;;;15.39;45.87
71126;BME280;58785;55.566;38.058;2023-05-02T06:05:43;101127.44;;;15.18;45.05
71126;BME280;58785;55.566;38.058;2023-05-02T06:08:08;101127.97;;;15.04;45.08
71126;BME280;58785;55.566;38.058;2023-05-02T06:10:34;101119.34;;;15.00;45.50
71126;BME280;58785;55.566;38.058;2023-05-02T06:13:00;101117.13;;;15.31;45.06
71126;BME280;58785;55.566;38.058;2023-05-02T06:15:26;101124.47;;;15.74;44.91
71126;BME280;58785;55.566;38.058;2023-05-02T06:17:51;101127.38;;;16.07;44.35
71126;BME280;58785;55.566;38.058;2023-05-02T06:20:18;101113.66;;;16.18;44.48
71126;BME280;58785;55.566;38.058;2023-05-02T06:22:43;101123.31;;;16.29;43.60
71126;BME280;58785;55.566;38.058;2023-05-02T06:25:09;101124.38;;;16.36;43.92
71126;BME280;58785;55.566;38.058;2023-05-02T06:27:35;101125.44;;;16.51;43.55
71126;BME280;58785;55.566;38.058;2023-05-02T06:30:00;101121.91;;;16.51;43.49
71126;BME280;58785;55.566;38.058;2023-05-02T06:32:30;101126.16;;;16.61;43.46
71126;BME280;58785;55.566;38.058;2023-05-02T06:34:56;101123.13;;;16.56;43.22
71126;BME280;58785;55.566;38.058;2023-05-02T06:37:22;101120.75;;;16.61;42.88
71126;BME280;58785;55.566;38.058;2023-05-02T06:39:48;101123.41;;;16.45;42.77
71126;BME280;58785;55.566;38.058;2023-05-02T06:42:14;101122.28;;;16.30;41.92
71126;BME280;58785;55.566;38.058;2023-05-02T06:44:39;101117.25;;;15.75;41.28
71126;BME280;58785;55.566;38.058;2023-05-02T06:47:05;101121.88;;;15.91;41.52
71126;BME280;58785;55.566;38.058;2023-05-02T06:49:32;101118.53;;;16.15;41.61
71126;BME280;58785;55.566;38.058;2023-05-02T06:51:58;101122.75;;;16.51;41.83
71126;BME280;58785;55.566;38.058;2023-05-02T06:54:23;101126.06;;;16.71;40.98
71126;BME280;58785;55.566;38.058;2023-05-02T06:56:49;101124.66;;;16.67;40.89
71126;BME280;58785;55.566;38.058;2023-05-02T06:59:15;101118.19;;;16.44;40.92
71126;BME280;58785;55.566;38.058;2023-05-02T07:01:42;101129.78;;;16.44;40.96
71126;BME280;58785;55.566;38.058;2023-05-02T07:04:08;101123.31;;;16.29;40.27
71126;BME280;58785;55.566;38.058;2023-05-02T07:06:34;101110.81;;;15.94;40.09
71126;BME280;58785;55.566;38.058;2023-05-02T07:09:00;101116.91;;;15.78;40.61
71126;BME280;58785;55.566;38.058;2023-05-02T07:11:26;101121.13;;;15.80;40.37
71126;BME280;58785;55.566;38.058;2023-05-02T07:13:52;101122.06;;;15.53;39.97
71126;BME280;58785;55.566;38.058;2023-05-02T07:16:18;101117.84;;;15.33;40.52
71126;BME280;58785;55.566;38.058;2023-05-02T07:18:44;101131.41;;;15.32;40.17
71126;BME280;58785;55.566;38.058;2023-05-02T07:21:11;101125.34;;;15.12;40.63
71126;BME280;58785;55.566;38.058;2023-05-02T07:23:38;101120.53;;;15.15;40.62
71126;BME280;58785;55.566;38.058;2023-05-02T07:26:03;101127.56;;;15.52;40.82
71126;BME280;58785;55.566;38.058;2023-05-02T07:28:33;101122.06;;;15.71;40.16
71126;BME280;58785;55.566;38.058;2023-05-02T07:30:58;101117.81;;;15.87;40.54
71126;BME280;58785;55.566;38.058;2023-05-02T07:33:24;101123.56;;;15.92;40.54
71126;BME280;58785;55.566;38.058;2023-05-02T07:35:50;101128.00;;;15.75;40.35
71126;BME280;58785;55.566;38.058;2023-05-02T07:38:16;101127.97;;;15.57;40.37
71126;BME280;58785;55.566;38.058;2023-05-02T07:40:42;101122.00;;;15.45;40.43
71126;BME280;58785;55.566;38.058;2023-05-02T07:43:08;101125.91;;;15.33;39.95
71126;BME280;58785;55.566;38.058;2023-05-02T07:45:34;101129.75;;;15.48;39.73
71126;BME280;58785;55.566;38.058;2023-05-02T07:48:00;101118.06;;;15.58;39.99
71126;BME280;58785;55.566;38.058;2023-05-02T07:50:26;101122.06;;;15.71;40.08
71126;BME280;58785;55.566;38.058;2023-05-02T07:52:53;101130.22;;;15.62;39.27
71126;BME280;58785;55.566;38.058;2023-05-02T07:55:19;101124.84;;;15.44;39.57
71126;BME280;58785;55.566;38.058;2023-05-02T07:57:45;101118.81;;;15.32;39.73
71126;BME280;58785;55.566;38.058;2023-05-02T08:00:11;101120.16;;;15.46;39.69
71126;BME280;58785;55.566;38.058;2023-05-02T08:02:37;101127.13;;;15.39;39.33
71126;BME280;58785;55.566;38.058;2023-05-02T08:05:03;101123.50;;;15.12;39.07
71126;BME280;58785;55.566;38.058;2023-05-02T08:07:31;101106.31;;;15.05;39.16
71126;BME280;58785;55.566;38.058;2023-05-02T08:09:56;101121.53;;;15.14;39.24
71126;BME280;58785;55.566;38.058;2023-05-02T08:12:22;101122.75;;;15.20;39.59
71126;BME280;58785;55.566;38.058;2023-05-02T08:14:48;101124.91;;;15.34;39.19
71126;BME280;58785;55.566;38.058;2023-05-02T08:17:13;101113.94;;;15.45;39.28
71126;BME280;58785;55.566;38.058;2023-05-02T08:19:40;101116.69;;;15.71;39.83
71126;BME280;58785;55.566;38.058;2023-05-02T08:22:05;101115.97;;;15.87;39.20
71126;BME280;58785;55.566;38.058;2023-05-02T08:24:31;101121.97;;;15.81;39.11
71126;BME280;58785;55.566;38.058;2023-05-02T08:26:57;101123.75;;;15.55;38.79
71126;BME280;58785;55.566;38.058;2023-05-02T08:29:23;101112.78;;;15.48;39.32
71126;BME280;58785;55.566;38.058;2023-05-02T08:31:48;101114.25;;;15.60;39.27
71126;BME280;58785;55.566;38.058;2023-05-02T08:34:14;101127.66;;;15.78;39.39
71126;BME280;58785;55.566;38.058;2023-05-02T08:36:40;101123.72;;;15.64;38.80
71126;BME280;58785;55.566;38.058;2023-05-02T08:39:06;101130.59;;;15.67;39.19
71126;BME280;58785;55.566;38.058;2023-05-02T08:41:35;101107.09;;;15.69;38.81
71126;BME280;58785;55.566;38.058;2023-05-02T08:44:02;101110.75;;;15.50;39.02
71126;BME280;58785;55.566;38.058;2023-05-02T08:46:29;101112.31;;;15.70;39.38
71126;BME280;58785;55.566;38.058;2023-05-02T08:48:57;101106.47;;;16.01;39.38
71126;BME280;58785;55.566;38.058;2023-05-02T08:51:23;101106.25;;;16.20;39.51
71126;BME280;58785;55.566;38.058;2023-05-02T08:53:51;101098.13;;;16.38;40.31
71126;BME280;58785;55.566;38.058;2023-05-02T08:56:16;101100.53;;;16.49;39.93
71126;BME280;58785;55.566;38.058;2023-05-02T08:58:42;101109.22;;;16.43;38.57
71126;BME280;58785;55.566;38.058;2023-05-02T09:01:14;101106.81;;;15.98;39.16
71126;BME280;58785;55.566;38.058;2023-05-02T09:03:43;101115.38;;;16.01;39.80
71126;BME280;58785;55.566;38.058;2023-05-02T09:08:44;101096.16;;;16.22;39.00
71126;BME280;58785;55.566;38.058;2023-05-02T09:11:11;101098.78;;;16.40;39.81
71126;BME280;58785;55.566;38.058;2023-05-02T09:13:42;101103.84;;;16.43;39.21
71126;BME280;58785;55.566;38.058;2023-05-02T09:21:15;101089.97;;;15.96;37.49
71126;BME280;58785;55.566;38.058;2023-05-02T09:23:46;101101.78;;;15.77;37.47
71126;BME280;58785;55.566;38.058;2023-05-02T09:26:25;101102.88;;;15.66;37.36
71126;BME280;58785;55.566;38.058;2023-05-02T09:28:54;101100.41;;;15.37;37.61
71126;BME280;58785;55.566;38.058;2023-05-02T09:31:22;101102.56;;;15.34;37.34
71126;BME280;58785;55.566;38.058;2023-05-02T09:33:50;101092.88;;;15.23;36.83
71126;BME280;58785;55.566;38.058;2023-05-02T09:36:18;101086.28;;;15.17;37.13
71126;BME280;58785;55.566;38.058;2023-05-02T09:38:47;101076.91;;;15.21;37.08
71126;BME280;58785;55.566;38.058;2023-05-02T09:41:14;101086.91;;;15.29;37.61
71126;BME280;58785;55.566;38.058;2023-05-02T09:43:40;101083.81;;;15.42;37.43
71126;BME280;58785;55.566;38.058;2023-05-02T09:46:10;101086.72;;;15.48;37.05
71126;BME280;58785;55.566;38.058;2023-05-02T09:48:55;101072.16;;;15.33;35.69
71126;BME280;58785;55.566;38.058;2023-05-02T09:51:23;101073.63;;;15.28;36.13
71126;BME280;58785;55.566;38.058;2023-05-02T09:53:49;101065.16;;;15.40;36.36
71126;BME280;58785;55.566;38.058;2023-05-02T09:56:15;101061.53;;;15.49;36.34
71126;BME280;58785;55.566;38.058;2023-05-02T09:58:41;101053.63;;;15.48;36.39
71126;BME280;58785;55.566;38.058;2023-05-02T10:01:07;101059.78;;;15.40;36.50
71126;BME280;58785;55.566;38.058;2023-05-02T10:03:36;101062.34;;;15.24;36.37
71126;BME280;58785;55.566;38.058;2023-05-02T10:06:04;101056.28;;;15.04;36.09
71126;BME280;58785;55.566;38.058;2023-05-02T10:08:32;101057.88;;;14.97;36.86
71126;BME280;58785;55.566;38.058;2023-05-02T10:10:59;101058.91;;;15.14;37.91
71126;BME280;58785;55.566;38.058;2023-05-02T10:13:31;101047.97;;;15.33;37.54
71126;BME280;58785;55.566;38.058;2023-05-02T10:16:03;101055.72;;;15.54;38.58
71126;BME280;58785;55.566;38.058;2023-05-02T10:18:51;101050.63;;;15.51;37.06
71126;BME280;58785;55.566;38.058;2023-05-02T10:21:27;101049.94;;;15.49;37.20
71126;BME280;58785;55.566;38.058;2023-05-02T10:23:53;101046.41;;;15.48;37.07
71126;BME280;58785;55.566;38.058;2023-05-02T10:26:19;101047.66;;;15.54;37.09
71126;BME280;58785;55.566;38.058;2023-05-02T10:28:49;101049.56;;;15.62;37.41
71126;BME280;58785;55.566;38.058;2023-05-02T10:31:16;101036.50;;;15.67;37.61
71126;BME280;58785;55.566;38.058;2023-05-02T10:33:42;101048.00;;;15.77;37.72
71126;BME280;58785;55.566;38.058;2023-05-02T10:36:10;101043.22;;;15.71;37.43
71126;BME280;58785;55.566;38.058;2023-05-02T10:38:39;101050.41;;;15.62;36.94
71126;BME280;58785;55.566;38.058;2023-05-02T10:41:21;101045.50;;;15.40;36.69
71126;BME280;58785;55.566;38.058;2023-05-02T10:43:49;101040.91;;;15.32;37.10
71126;BME280;58785;55.566;38.058;2023-05-02T10:46:35;101037.06;;;15.35;36.32
71126;BME280;58785;55.566;38.058;2023-05-02T10:49:11;101032.06;;;15.22;36.42
71126;BME280;58785;55.566;38.058;2023-05-02T10:51:38;101027.78;;;15.29;36.75
71126;BME280;58785;55.566;38.058;2023-05-02T10:54:19;101037.81;;;15.45;37.47
71126;BME280;58785;55.566;38.058;2023-05-02T10:57:05;101024.09;;;15.30;36.85
71126;BME280;58785;55.566;38.058;2023-05-02T10:59:36;101030.09;;;15.24;36.62
71126;BME280;58785;55.566;38.058;2023-05-02T11:05:06;101015.81;;;15.23;36.87
71126;BME280;58785;55.566;38.058;2023-05-02T11:07:36;101025.69;;;15.41;37.19
71126;BME280;58785;55.566;38.058;2023-05-02T11:15:10;101013.88;;;15.34;36.74
71126;BME280;58785;55.566;38.058;2023-05-02T11:20:23;101012.97;;;15.25;36.27
71126;BME280;58785;55.566;38.058;2023-05-02T11:22:50;101010.28;;;15.25;36.36
71126;BME280;58785;55.566;38.058;2023-05-02T11:25:36;100999.47;;;15.17;36.72
71126;BME280;58785;55.566;38.058;2023-05-02T11:28:05;100998.53;;;15.26;36.81
71126;BME280;58785;55.566;38.058;2023-05-02T11:30:44;101002.31;;;15.33;37.13
71126;BME280;58785;55.566;38.058;2023-05-02T11:33:14;101000.91;;;15.29;37.09
71126;BME280;58785;55.566;38.058;2023-05-02T11:35:42;101001.91;;;15.28;36.98
71126;BME280;58785;55.566;38.058;2023-05-02T11:38:13;100996.75;;;15.35;36.87
71126;BME280;58785;55.566;38.058;2023-05-02T11:40:39;100984.88;;;15.19;36.39
71126;BME280;58785;55.566;38.058;2023-05-02T11:43:13;100990.09;;;15.21;36.34
71126;BME280;58785;55.566;38.058;2023-05-02T11:45:39;100984.56;;;15.22;36.78
71126;BME280;58785;55.566;38.058;2023-05-02T11:48:07;100989.53;;;15.35;37.54
71126;BME280;58785;55.566;38.058;2023-05-02T11:50:40;100985.38;;;15.41;36.63
71126;BME280;58785;55.566;38.058;2023-05-02T11:53:09;100978.47;;;15.38;36.54
71126;BME280;58785;55.566;38.058;2023-05-02T11:55:36;100981.31;;;15.37;37.11
71126;BME280;58785;55.566;38.058;2023-05-02T11:58:02;100982.22;;;15.45;37.04
71126;BME280;58785;55.566;38.058;2023-05-02T12:00:28;100973.78;;;15.40;36.88
71126;BME280;58785;55.566;38.058;2023-05-02T12:02:54;100974.69;;;15.49;37.28
71126;BME280;58785;55.566;38.058;2023-05-02T12:05:27;100982.06;;;15.47;37.12
71126;BME280;58785;55.566;38.058;2023-05-02T12:07:56;100978.69;;;15.45;36.82
71126;BME280;58785;55.566;38.058;2023-05-02T12:10:22;100971.41;;;15.37;36.87
71126;BME280;58785;55.566;38.058;2023-05-02T12:12:48;100974.19;;;15.28;36.59
71126;BME280;58785;55.566;38.058;2023-05-02T12:15:14;100969.91;;;15.17;36.92
71126;BME280;58785;55.566;38.058;2023-05-02T12:17:42;100963.88;;;15.15;36.71
71126;BME280;58785;55.566;38.058;2023-05-02T12:20:09;100968.53;;;15.13;36.74
71126;BME280;58785;55.566;38.058;2023-05-02T12:22:36;100974.22;;;15.10;36.39
71126;BME280;58785;55.566;38.058;2023-05-02T12:25:03;100968.78;;;15.02;36.66
71126;BME280;58785;55.566;38.058;2023-05-02T12:27:30;100961.19;;;14.97;36.03
71126;BME280;58785;55.566;38.058;2023-05-02T12:29:59;100963.19;;;14.95;36.47
71126;BME280;58785;55.566;38.058;2023-05-02T12:32:30;100950.91;;;14.92;36.59
71126;BME280;58785;55.566;38.058;2023-05-02T12:34:57;100951.13;;;14.99;36.61
71126;BME280;58785;55.566;38.058;2023-05-02T12:37:24;100958.75;;;15.04;36.47
71126;BME280;58785;55.566;38.058;2023-05-02T12:39:50;100951.66;;;15.03;35.84
71126;BME280;58785;55.566;38.058;2023-05-02T12:42:20;100958.94;;;15.10;36.23
71126;BME280;58785;55.566;38.058;2023-05-02T12:44:48;100954.63;;;15.17;36.23
71126;BME280;58785;55.566;38.058;2023-05-02T12:47:18;100943.56;;;15.20;37.32
71126;BME280;58785;55.566;38.058;2023-05-02T12:49:48;100947.84;;;15.31;37.73
71126;BME280;58785;55.566;38.058;2023-05-02T12:52:45;100946.38;;;15.37;37.19
71126;BME280;58785;55.566;38.058;2023-05-02T12:55:20;100934.09;;;15.34;37.36
71126;BME280;58785;55.566;38.058;2023-05-02T12:57:59;100937.16;;;15.39;37.32
71126;BME280;58785;55.566;38.058;2023-05-02T13:00:25;100942.53;;;15.39;36.85
71126;BME280;58785;55.566;38.058;2023-05-02T13:02:51;100940.00;;;15.38;37.51
71126;BME280;58785;55.566;38.058;2023-05-02T13:05:17;100937.63;;;15.35;37.62
71126;BME280;58785;55.566;38.058;2023-05-02T13:07:43;100933.78;;;15.37;37.68
71126;BME280;58785;55.566;38.058;2023-05-02T13:10:10;100941.22;;;15.43;37.90
71126;BME280;58785;55.566;38.058;2023-05-02T13:12:37;100936.69;;;15.44;37.85
71126;BME280;58785;55.566;38.058;2023-05-02T13:15:03;100944.09;;;15.50;37.15
71126;BME280;58785;55.566;38.058;2023-05-02T13:17:32;100935.69;;;15.45;37.34
71126;BME280;58785;55.566;38.058;2023-05-02T13:19:58;100933.28;;;15.42;36.47
71126;BME280;58785;55.566;38.058;2023-05-02T13:22:25;100938.63;;;15.34;36.51
71126;BME280;58785;55.566;38.058;2023-05-02T13:24:51;100931.03;;;15.29;36.21
71126;BME280;58785;55.566;38.058;2023-05-02T13:27:17;100926.81;;;15.27;36.13
71126;BME280;58785;55.566;38.058;2023-05-02T13:29:44;100923.34;;;15.34;35.99
71126;BME280;58785;55.566;38.058;2023-05-02T13:32:10;100922.34;;;15.35;36.18